sensor_id;sensor_type;location;lat;lon;timestamp;temperature;humidity
2130;DHT22;1071;52.544;13.374;2024-03-02T00:00:53;11.60;99.90
2130;DHT22;1071;52.544;13.374;2024-03-02T00:03:20;11.60;99.90
2130;DHT22;1071;52.544;13.374;2024-03-02T00:05:50;11.60;99.90
2130;DHT22;1071;52.544;13.374;2024-03-02T00:08:23;11.60;99.90
2130;DHT22;1071;52.544;13.374;2024-03-02T00:10:53;11.60;99.90
2130;DHT22;1071;52.544;13.374;2024-03-02T00:13:23;11.70;99.90
2130;DHT22;1071;52.544;13.374;2024-03-02T00:15:53;11.70;99.90
2130;DHT22;1071;52.544;13.374;2024-03-02T00:18:25;11.60;99.90
2130;DHT22;1071;52.544;13.374;2024-03-02T00:20:53;11.70;99.90
2130;DHT22;1071;52.544;13.374;2024-03-02T00:23:22;11.70;99.90
2130;DHT22;1071;52.544;13.374;2024-03-02T00:25:50;11.70;99.90
2130;DHT22;1071;52.544;13.374;2024-03-02T00:28:20;11.70;99.90
2130;DHT22;1071;52.544;13.374;2024-03-02T00:30:59;11.60;99.90
2130;DHT22;1071;52.544;13.374;2024-03-02T00:33:27;11.60;99.90
2130;DHT22;1071;52.544;13.374;2024-03-02T00:35:56;11.60;99.90
2130;DHT22;1071;52.544;13.374;2024-03-02T00:38:25;11.60;99.90
2130;DHT22;1071;52.544;13.374;2024-03-02T00:40:54;11.70;99.90
2130;DHT22;1071;52.544;13.374;2024-03-02T00:43:41;11.70;99.90
2130;DHT22;1071;52.544;13.374;2024-03-02T00:46:11;11.70;99.90
2130;DHT22;1071;52.544;13.374;2024-03-02T00:48:40;11.70;99.90
2130;DHT22;1071;52.544;13.374;2024-03-02T00:51:11;11.70;99.90
2130;DHT22;1071;52.544;13.374;2024-03-02T00:53:39;11.70;99.90
2130;DHT22;1071;52.544;13.374;2024-03-02T00:56:09;11.70;99.90
2130;DHT22;1071;52.544;13.374;2024-03-02T00:58:37;11.70;99.90
2130;DHT22;1071;52.544;13.374;2024-03-02T01:01:09;11.70;99.90
2130;DHT22;1071;52.544;13.374;2024-03-02T01:03:38;11.70;99.90
2130;DHT22;1071;52.544;13.374;2024-03-02T01:06:06;11.70;99.90
2130;DHT22;1071;52.544;13.374;2024-03-02T01:08:37;11.70;99.90
2130;DHT22;1071;52.544;13.374;2024-03-02T01:11:08;11.70;99.90
2130;DHT22;1071;52.544;13.374;2024-03-02T01:13:35;11.70;99.90
2130;DHT22;1071;52.544;13.374;2024-03-02T01:16:02;11.70;99.90
2130;DHT22;1071;52.544;13.374;2024-03-02T01:18:29;11.80;99.90
2130;DHT22;1071;52.544;13.374;2024-03-02T01:20:58;11.80;99.90
2130;DHT22;1071;52.544;13.374;2024-03-02T01:23:30;11.80;99.90
2130;DHT22;1071;52.544;13.374;2024-03-02T01:26:19;11.80;99.90
2130;DHT22;1071;52.544;13.374;2024-03-02T01:28:47;11.80;99.90
2130;DHT22;1071;52.544;13.374;2024-03-02T01:31:14;11.80;99.90
2130;DHT22;1071;52.544;13.374;2024-03-02T01:33:41;11.80;99.90
2130;DHT22;1071;52.544;13.374;2024-03-02T01:36:09;11.80;99.90
2130;DHT22;1071;52.544;13.374;2024-03-02T01:38:36;11.80;99.90
2130;DHT22;1071;52.544;13.374;2024-03-02T01:41:03;11.80;99.90
2130;DHT22;1071;52.544;13.374;2024-03-02T01:43:30;11.80;99.90
2130;DHT22;1071;52.544;13.374;2024-03-02T01:45:57;11.80;99.90
2130;DHT22;1071;52.544;13.374;2024-03-02T01:48:27;11.80;99.90
2130;DHT22;1071;52.544;13.374;2024-03-02T01:51:01;11.80;99.90
2130;DHT22;1071;52.544;13.374;2024-03-02T01:53:35;11.80;99.90
2130;DHT22;1071;52.544;13.374;2024-03-02T01:56:03;11.80;99.90
2130;DHT22;1071;52.544;13.374;2024-03-02T01:58:30;11.80;99.90
2130;DHT22;1071;52.544;13.374;2024-03-02T02:00:57;11.90;99.90
2130;DHT22;1071;52.544;13.374;2024-03-02T02:03:24;11.90;99.90
2130;DHT22;1071;52.544;13.374;2024-03-02T02:05:51;11.90;99.90
2130;DHT22;1071;52.544;13.374;2024-03-02T02:08:18;11.90;99.90
2130;DHT22;1071;52.544;13.374;2024-03-02T02:10:46;12.00;99.90
2130;DHT22;1071;52.544;13.374;2024-03-02T02:13:13;12.00;99.90
2130;DHT22;1071;52.544;13.374;2024-03-02T02:15:40;12.00;99.90
2130;DHT22;1071;52.544;13.374;2024-03-02T02:18:07;12.00;99.90
2130;DHT22;1071;52.544;13.374;2024-03-02T02:20:34;12.00;99.90
2130;DHT22;1071;52.544;13.374;2024-03-02T02:23:04;12.10;99.90
2130;DHT22;1071;52.544;13.374;2024-03-02T02:25:33;12.10;99.90
2130;DHT22;1071;52.544;13.374;2024-03-02T02:28:04;12.10;99.90
2130;DHT22;1071;52.544;13.374;2024-03-02T02:30:33;12.20;99.90
2130;DHT22;1071;52.544;13.374;2024-03-02T02:33:00;12.20;99.90
2130;DHT22;1071;52.544;13.374;2024-03-02T02:35:27;12.20;99.90
2130;DHT22;1071;52.544;13.374;2024-03-02T02:37:55;12.20;99.90
2130;DHT22;1071;52.544;13.374;2024-03-02T02:40:25;12.20;99.90
2130;DHT22;1071;52.544;13.374;2024-03-02T02:42:52;12.20;99.90
2130;DHT22;1071;52.544;13.374;2024-03-02T02:45:19;12.30;99.90
2130;DHT22;1071;52.544;13.374;2024-03-02T02:47:46;12.30;99.90
2130;DHT22;1071;52.544;13.374;2024-03-02T02:50:13;12.30;99.90
2130;DHT22;1071;52.544;13.374;2024-03-02T02:52:41;12.30;99.90
2130;DHT22;1071;52.544;13.374;2024-03-02T02:55:09;12.40;99.90
2130;DHT22;1071;52.544;13.374;2024-03-02T02:57:40;12.40;99.90
2130;DHT22;1071;52.544;13.374;2024-03-02T03:00:09;12.40;99.90
2130;DHT22;1071;52.544;13.374;2024-03-02T03:02:39;12.40;99.90
2130;DHT22;1071;52.544;13.374;2024-03-02T03:05:10;12.40;99.90
2130;DHT22;1071;52.544;13.374;2024-03-02T03:07:48;12.50;99.90
2130;DHT22;1071;52.544;13.374;2024-03-02T03:10:16;12.40;99.90
2130;DHT22;1071;52.544;13.374;2024-03-02T03:12:47;12.40;99.90
2130;DHT22;1071;52.544;13.374;2024-03-02T03:15:14;12.50;99.90
2130;DHT22;1071;52.544;13.374;2024-03-02T03:17:42;12.50;99.90
2130;DHT22;1071;52.544;13.374;2024-03-02T03:20:09;12.50;99.90
2130;DHT22;1071;52.544;13.374;2024-03-02T03:22:36;12.50;99.90
2130;DHT22;1071;52.544;13.374;2024-03-02T03:25:04;12.50;99.90
2130;DHT22;1071;52.544;13.374;2024-03-02T03:27:33;12.50;99.90
2130;DHT22;1071;52.544;13.374;2024-03-02T03:30:02;12.50;99.90
2130;DHT22;1071;52.544;13.374;2024-03-02T03:32:29;12.50;99.90
2130;DHT22;1071;52.544;13.374;2024-03-02T03:34:56;12.50;99.90
2130;DHT22;1071;52.544;13.374;2024-03-02T03:37:23;12.40;99.90
2130;DHT22;1071;52.544;13.374;2024-03-02T03:39:52;12.40;99.90
2130;DHT22;1071;52.544;13.374;2024-03-02T03:42:20;12.40;99.90
2130;DHT22;1071;52.544;13.374;2024-03-02T03:44:47;12.40;99.90
2130;DHT22;1071;52.544;13.374;2024-03-02T03:47:17;12.40;99.90
2130;DHT22;1071;52.544;13.374;2024-03-02T03:49:45;12.50;99.90
2130;DHT22;1071;52.544;13.374;2024-03-02T03:52:12;12.40;99.90
2130;DHT22;1071;52.544;13.374;2024-03-02T03:54:39;12.50;99.90
2130;DHT22;1071;52.544;13.374;2024-03-02T03:57:08;12.50;99.90
2130;DHT22;1071;52.544;13.374;2024-03-02T03:59:35;12.50;99.90
2130;DHT22;1071;52.544;13.374;2024-03-02T04:02:03;12.50;99.90
2130;DHT22;1071;52.544;13.374;2024-03-02T04:04:31;12.50;99.90
2130;DHT22;1071;52.544;13.374;2024-03-02T04:06:59;12.60;99.90
2130;DHT22;1071;52.544;13.374;2024-03-02T04:09:26;12.60;99.90
2130;DHT22;1071;52.544;13.374;2024-03-02T04:11:53;12.60;99.90
2130;DHT22;1071;52.544;13.374;2024-03-02T04:14:20;12.60;99.90
2130;DHT22;1071;52.544;13.374;2024-03-02T04:16:47;12.60;99.90
2130;DHT22;1071;52.544;13.374;2024-03-02T04:19:15;12.60;99.90
2130;DHT22;1071;52.544;13.374;2024-03-02T04:21:44;12.60;99.90
2130;DHT22;1071;52.544;13.374;2024-03-02T04:24:11;12.60;99.90
2130;DHT22;1071;52.544;13.374;2024-03-02T04:26:37;12.60;99.90
2130;DHT22;1071;52.544;13.374;2024-03-02T04:29:05;12.60;99.90
2130;DHT22;1071;52.544;13.374;2024-03-02T04:31:32;12.60;99.90
2130;DHT22;1071;52.544;13.374;2024-03-02T04:33:59;12.60;99.90
2130;DHT22;1071;52.544;13.374;2024-03-02T04:36:28;12.60;99.90
2130;DHT22;1071;52.544;13.374;2024-03-02T04:38:56;12.60;99.90
2130;DHT22;1071;52.544;13.374;2024-03-02T04:41:23;12.60;99.90
2130;DHT22;1071;52.544;13.374;2024-03-02T04:43:52;12.60;99.90
2130;DHT22;1071;52.544;13.374;2024-03-02T04:46:18;12.60;99.90
2130;DHT22;1071;52.544;13.374;2024-03-02T04:48:45;12.60;99.90
2130;DHT22;1071;52.544;13.374;2024-03-02T04:51:14;12.60;99.90
2130;DHT22;1071;52.544;13.374;2024-03-02T04:53:40;12.60;99.90
2130;DHT22;1071;52.544;13.374;2024-03-02T04:56:09;12.60;99.90
2130;DHT22;1071;52.544;13.374;2024-03-02T04:58:50;12.60;99.90
2130;DHT22;1071;52.544;13.374;2024-03-02T05:01:17;12.60;99.90
2130;DHT22;1071;52.544;13.374;2024-03-02T05:03:43;12.70;99.90
2130;DHT22;1071;52.544;13.374;2024-03-02T05:06:13;12.70;99.90
2130;DHT22;1071;52.544;13.374;2024-03-02T05:08:40;12.70;99.90
2130;DHT22;1071;52.544;13.374;2024-03-02T05:11:09;12.70;99.90
2130;DHT22;1071;52.544;13.374;2024-03-02T05:13:52;12.70;99.90
2130;DHT22;1071;52.544;13.374;2024-03-02T05:16:19;12.70;99.90
2130;DHT22;1071;52.544;13.374;2024-03-02T05:18:46;12.80;99.90
2130;DHT22;1071;52.544;13.374;2024-03-02T05:21:13;12.80;99.90
2130;DHT22;1071;52.544;13.374;2024-03-02T05:23:40;12.80;99.90
2130;DHT22;1071;52.544;13.374;2024-03-02T05:26:08;12.80;99.90
2130;DHT22;1071;52.544;13.374;2024-03-02T05:28:38;12.80;99.90
2130;DHT22;1071;52.544;13.374;2024-03-02T05:31:09;12.80;99.90
2130;DHT22;1071;52.544;13.374;2024-03-02T05:33:37;12.80;99.90
2130;DHT22;1071;52.544;13.374;2024-03-02T05:36:04;12.80;99.90
2130;DHT22;1071;52.544;13.374;2024-03-02T05:38:31;12.80;99.90
2130;DHT22;1071;52.544;13.374;2024-03-02T05:40:58;12.80;99.90
2130;DHT22;1071;52.544;13.374;2024-03-02T05:43:28;12.70;99.90
2130;DHT22;1071;52.544;13.374;2024-03-02T05:45:55;12.60;99.90
2130;DHT22;1071;52.544;13.374;2024-03-02T05:48:22;12.70;99.90
2130;DHT22;1071;52.544;13.374;2024-03-02T05:50:49;12.70;99.90
2130;DHT22;1071;52.544;13.374;2024-03-02T05:53:16;12.60;99.90
2130;DHT22;1071;52.544;13.374;2024-03-02T05:55:43;12.60;99.90
2130;DHT22;1071;52.544;13.374;2024-03-02T05:58:11;12.50;99.90
2130;DHT22;1071;52.544;13.374;2024-03-02T06:00:52;12.50;99.90
2130;DHT22;1071;52.544;13.374;2024-03-02T06:03:20;12.50;99.90
2130;DHT22;1071;52.544;13.374;2024-03-02T06:05:47;12.50;99.90
2130;DHT22;1071;52.544;13.374;2024-03-02T06:08:14;12.50;99.90
2130;DHT22;1071;52.544;13.374;2024-03-02T06:10:42;12.50;99.90
2130;DHT22;1071;52.544;13.374;2024-03-02T06:13:09;12.50;99.90
2130;DHT22;1071;52.544;13.374;2024-03-02T06:15:36;12.50;99.90
2130;DHT22;1071;52.544;13.374;2024-03-02T06:18:04;12.50;99.90
2130;DHT22;1071;52.544;13.374;2024-03-02T06:20:33;12.50;99.90
2130;DHT22;1071;52.544;13.374;2024-03-02T06:23:00;12.50;99.90
2130;DHT22;1071;52.544;13.374;2024-03-02T06:25:27;12.50;99.90
2130;DHT22;1071;52.544;13.374;2024-03-02T06:27:54;12.50;99.90
2130;DHT22;1071;52.544;13.374;2024-03-02T06:30:21;12.50;99.90
2130;DHT22;1071;52.544;13.374;2024-03-02T06:32:48;12.50;99.90
2130;DHT22;1071;52.544;13.374;2024-03-02T06:35:17;12.50;99.90
2130;DHT22;1071;52.544;13.374;2024-03-02T06:37:46;12.50;99.90
2130;DHT22;1071;52.544;13.374;2024-03-02T06:40:16;12.60;99.90
2130;DHT22;1071;52.544;13.374;2024-03-02T06:42:43;12.60;99.90
2130;DHT22;1071;52.544;13.374;2024-03-02T06:45:10;12.60;99.90
2130;DHT22;1071;52.544;13.374;2024-03-02T06:47:37;12.60;99.90
2130;DHT22;1071;52.544;13.374;2024-03-02T06:50:08;12.60;99.90
2130;DHT22;1071;52.544;13.374;2024-03-02T06:52:36;12.60;99.90
2130;DHT22;1071;52.544;13.374;2024-03-02T06:55:04;12.60;99.90
2130;DHT22;1071;52.544;13.374;2024-03-02T06:57:32;12.60;99.90
2130;DHT22;1071;52.544;13.374;2024-03-02T06:59:59;12.60;99.90
2130;DHT22;1071;52.544;13.374;2024-03-02T07:02:26;12.60;99.90
2130;DHT22;1071;52.544;13.374;2024-03-02T07:04:53;12.60;99.90
2130;DHT22;1071;52.544;13.374;2024-03-02T07:07:20;12.60;99.90
2130;DHT22;1071;52.544;13.374;2024-03-02T07:09:48;12.60;99.90
2130;DHT22;1071;52.544;13.374;2024-03-02T07:12:15;12.60;99.90
2130;DHT22;1071;52.544;13.374;2024-03-02T07:14:42;12.60;99.90
2130;DHT22;1071;52.544;13.374;2024-03-02T07:17:38;12.60;99.90
2130;DHT22;1071;52.544;13.374;2024-03-02T07:20:06;12.60;99.90
2130;DHT22;1071;52.544;13.374;2024-03-02T07:22:34;12.60;99.90
2130;DHT22;1071;52.544;13.374;2024-03-02T07:25:05;12.60;99.90
2130;DHT22;1071;52.544;13.374;2024-03-02T07:27:33;12.60;99.90
2130;DHT22;1071;52.544;13.374;2024-03-02T07:30:01;12.60;99.90
2130;DHT22;1071;52.544;13.374;2024-03-02T07:32:28;12.60;99.90
2130;DHT22;1071;52.544;13.374;2024-03-02T07:34:55;12.60;99.90
2130;DHT22;1071;52.544;13.374;2024-03-02T07:37:27;12.60;99.90
2130;DHT22;1071;52.544;13.374;2024-03-02T07:39:54;12.60;99.90
2130;DHT22;1071;52.544;13.374;2024-03-02T07:42:23;12.70;99.90
2130;DHT22;1071;52.544;13.374;2024-03-02T07:44:52;12.70;99.90
2130;DHT22;1071;52.544;13.374;2024-03-02T07:47:19;12.70;99.90
2130;DHT22;1071;52.544;13.374;2024-03-02T07:49:46;12.70;99.90
2130;DHT22;1071;52.544;13.374;2024-03-02T07:52:13;12.80;99.90
2130;DHT22;1071;52.544;13.374;2024-03-02T07:54:40;12.80;99.90
2130;DHT22;1071;52.544;13.374;2024-03-02T07:57:09;12.80;99.90
2130;DHT22;1071;52.544;13.374;2024-03-02T07:59:39;12.80;99.90
2130;DHT22;1071;52.544;13.374;2024-03-02T08:02:07;12.70;99.90
2130;DHT22;1071;52.544;13.374;2024-03-02T08:04:34;12.70;99.90
2130;DHT22;1071;52.544;13.374;2024-03-02T08:07:01;12.70;99.90
2130;DHT22;1071;52.544;13.374;2024-03-02T08:09:30;12.70;99.90
2130;DHT22;1071;52.544;13.374;2024-03-02T08:11:57;12.60;99.90
2130;DHT22;1071;52.544;13.374;2024-03-02T08:14:24;12.60;99.90
2130;DHT22;1071;52.544;13.374;2024-03-02T08:16:52;12.60;99.90
2130;DHT22;1071;52.544;13.374;2024-03-02T08:19:20;12.60;99.90
2130;DHT22;1071;52.544;13.374;2024-03-02T08:21:50;12.60;99.90
2130;DHT22;1071;52.544;13.374;2024-03-02T08:24:17;12.50;99.90
2130;DHT22;1071;52.544;13.374;2024-03-02T08:26:43;12.50;99.90
2130;DHT22;1071;52.544;13.374;2024-03-02T08:29:10;12.50;99.90
2130;DHT22;1071;52.544;13.374;2024-03-02T08:31:38;12.50;99.90
2130;DHT22;1071;52.544;13.374;2024-03-02T08:34:06;12.50;99.90
2130;DHT22;1071;52.544;13.374;2024-03-02T08:36:34;12.50;99.90
2130;DHT22;1071;52.544;13.374;2024-03-02T08:39:01;12.50;99.90
2130;DHT22;1071;52.544;13.374;2024-03-02T08:41:28;12.50;99.90
2130;DHT22;1071;52.544;13.374;2024-03-02T08:43:55;12.50;99.90
2130;DHT22;1071;52.544;13.374;2024-03-02T08:46:22;12.50;99.90
2130;DHT22;1071;52.544;13.374;2024-03-02T08:48:50;12.50;99.90
2130;DHT22;1071;52.544;13.374;2024-03-02T08:51:18;12.50;99.90
2130;DHT22;1071;52.544;13.374;2024-03-02T08:53:45;12.50;99.90
2130;DHT22;1071;52.544;13.374;2024-03-02T08:56:12;12.60;99.90
2130;DHT22;1071;52.544;13.374;2024-03-02T08:58:41;12.60;99.90
2130;DHT22;1071;52.544;13.374;2024-03-02T09:01:09;12.60;99.90
2130;DHT22;1071;52.544;13.374;2024-03-02T09:03:37;12.60;99.90
2130;DHT22;1071;52.544;13.374;2024-03-02T09:06:15;12.70;99.90
2130;DHT22;1071;52.544;13.374;2024-03-02T09:08:46;12.70;99.90
2130;DHT22;1071;52.544;13.374;2024-03-02T09:11:13;12.70;99.90
2130;DHT22;1071;52.544;13.374;2024-03-02T09:13:40;12.70;99.90
2130;DHT22;1071;52.544;13.374;2024-03-02T09:16:08;12.70;99.90
2130;DHT22;1071;52.544;13.374;2024-03-02T09:18:36;12.70;99.90
2130;DHT22;1071;52.544;13.374;2024-03-02T09:21:04;12.70;99.90
2130;DHT22;1071;52.544;13.374;2024-03-02T09:23:32;12.70;99.90
2130;DHT22;1071;52.544;13.374;2024-03-02T09:26:00;12.70;99.90
2130;DHT22;1071;52.544;13.374;2024-03-02T09:28:28;12.70;99.90
2130;DHT22;1071;52.544;13.374;2024-03-02T09:30:55;12.70;99.90
2130;DHT22;1071;52.544;13.374;2024-03-02T09:33:22;12.60;99.90
2130;DHT22;1071;52.544;13.374;2024-03-02T09:35:49;12.70;99.90
2130;DHT22;1071;52.544;13.374;2024-03-02T09:38:16;12.70;99.90
2130;DHT22;1071;52.544;13.374;2024-03-02T09:40:44;12.70;99.90
2130;DHT22;1071;52.544;13.374;2024-03-02T09:43:13;12.70;99.90
2130;DHT22;1071;52.544;13.374;2024-03-02T09:45:40;12.70;99.90
2130;DHT22;1071;52.544;13.374;2024-03-02T09:48:08;12.80;99.90
2130;DHT22;1071;52.544;13.374;2024-03-02T09:50:37;12.80;99.90
2130;DHT22;1071;52.544;13.374;2024-03-02T09:53:07;12.80;99.90
2130;DHT22;1071;52.544;13.374;2024-03-02T09:55:38;12.90;99.90
2130;DHT22;1071;52.544;13.374;2024-03-02T09:58:11;13.00;99.90
2130;DHT22;1071;52.544;13.374;2024-03-02T10:00:40;13.10;99.90
2130;DHT22;1071;52.544;13.374;2024-03-02T10:03:11;13.10;99.90
2130;DHT22;1071;52.544;13.374;2024-03-02T10:05:39;13.20;99.90
2130;DHT22;1071;52.544;13.374;2024-03-02T10:08:06;13.20;99.90
2130;DHT22;1071;52.544;13.374;2024-03-02T10:10:37;13.30;99.90
2130;DHT22;1071;52.544;13.374;2024-03-02T10:13:14;13.30;99.90
2130;DHT22;1071;52.544;13.374;2024-03-02T10:15:44;13.40;99.90
2130;DHT22;1071;52.544;13.374;2024-03-02T10:18:16;13.50;99.90
2130;DHT22;1071;52.544;13.374;2024-03-02T10:21:13;13.60;99.90
2130;DHT22;1071;52.544;13.374;2024-03-02T10:23:40;13.60;99.90
2130;DHT22;1071;52.544;13.374;2024-03-02T10:26:16;13.70;99.90
2130;DHT22;1071;52.544;13.374;2024-03-02T10:28:46;13.70;99.90
2130;DHT22;1071;52.544;13.374;2024-03-02T10:31:15;13.70;99.90
2130;DHT22;1071;52.544;13.374;2024-03-02T10:33:42;13.70;99.90
2130;DHT22;1071;52.544;13.374;2024-03-02T10:36:09;13.70;99.90
2130;DHT22;1071;52.544;13.374;2024-03-02T10:38:36;13.70;99.90
2130;DHT22;1071;52.544;13.374;2024-03-02T10:41:03;13.70;99.90
2130;DHT22;1071;52.544;13.374;2024-03-02T10:43:31;13.80;99.90
2130;DHT22;1071;52.544;13.374;2024-03-02T10:45:59;13.90;99.90
2130;DHT22;1071;52.544;13.374;2024-03-02T10:48:28;13.80;99.90
2130;DHT22;1071;52.544;13.374;2024-03-02T10:50:56;13.80;99.90
2130;DHT22;1071;52.544;13.374;2024-03-02T10:53:27;13.80;99.90
2130;DHT22;1071;52.544;13.374;2024-03-02T10:55:58;13.80;99.90
2130;DHT22;1071;52.544;13.374;2024-03-02T10:58:32;13.80;99.90
2130;DHT22;1071;52.544;13.374;2024-03-02T11:01:02;13.80;99.90
2130;DHT22;1071;52.544;13.374;2024-03-02T11:03:33;13.90;99.90
2130;DHT22;1071;52.544;13.374;2024-03-02T11:06:03;13.90;99.90
2130;DHT22;1071;52.544;13.374;2024-03-02T11:08:34;14.00;99.90
2130;DHT22;1071;52.544;13.374;2024-03-02T11:11:06;14.00;99.90
2130;DHT22;1071;52.544;13.374;2024-03-02T11:13:34;14.10;99.90
2130;DHT22;1071;52.544;13.374;2024-03-02T11:16:05;14.10;99.90
2130;DHT22;1071;52.544;13.374;2024-03-02T11:18:34;14.20;99.90
2130;DHT22;1071;52.544;13.374;2024-03-02T11:21:02;14.20;99.90
2130;DHT22;1071;52.544;13.374;2024-03-02T11:23:33;14.30;99.90
2130;DHT22;1071;52.544;13.374;2024-03-02T11:26:17;14.30;99.90
2130;DHT22;1071;52.544;13.374;2024-03-02T11:28:44;14.30;99.90
2130;DHT22;1071;52.544;13.374;2024-03-02T11:31:12;14.40;99.90
2130;DHT22;1071;52.544;13.374;2024-03-02T11:33:40;14.50;99.90
2130;DHT22;1071;52.544;13.374;2024-03-02T11:36:09;14.50;99.90
2130;DHT22;1071;52.544;13.374;2024-03-02T11:38:36;14.60;99.90
2130;DHT22;1071;52.544;13.374;2024-03-02T11:41:10;14.60;99.90
2130;DHT22;1071;52.544;13.374;2024-03-02T11:43:37;14.70;99.90
2130;DHT22;1071;52.544;13.374;2024-03-02T11:46:06;14.80;99.90
2130;DHT22;1071;52.544;13.374;2024-03-02T11:48:35;14.80;99.90
2130;DHT22;1071;52.544;13.374;2024-03-02T11:51:04;14.80;99.90
2130;DHT22;1071;52.544;13.374;2024-03-02T11:53:33;14.90;99.90
2130;DHT22;1071;52.544;13.374;2024-03-02T11:56:02;14.90;99.90
2130;DHT22;1071;52.544;13.374;2024-03-02T11:58:31;14.90;99.90
2130;DHT22;1071;52.544;13.374;2024-03-02T12:00:59;14.90;99.90
2130;DHT22;1071;52.544;13.374;2024-03-02T12:03:26;14.90;99.90
2130;DHT22;1071;52.544;13.374;2024-03-02T12:05:54;14.90;99.90
2130;DHT22;1071;52.544;13.374;2024-03-02T12:08:23;15.00;99.90
2130;DHT22;1071;52.544;13.374;2024-03-02T12:10:57;15.00;99.90
2130;DHT22;1071;52.544;13.374;2024-03-02T12:13:24;15.10;99.90
2130;DHT22;1071;52.544;13.374;2024-03-02T12:15:53;15.10;99.90
2130;DHT22;1071;52.544;13.374;2024-03-02T12:18:24;15.10;99.90
2130;DHT22;1071;52.544;13.374;2024-03-02T12:20:52;15.10;99.90
2130;DHT22;1071;52.544;13.374;2024-03-02T12:23:24;15.00;99.90
2130;DHT22;1071;52.544;13.374;2024-03-02T12:25:51;15.10;99.90
2130;DHT22;1071;52.544;13.374;2024-03-02T12:28:19;15.10;99.90
2130;DHT22;1071;52.544;13.374;2024-03-02T12:30:48;15.20;99.90
2130;DHT22;1071;52.544;13.374;2024-03-02T12:33:25;15.20;99.90
2130;DHT22;1071;52.544;13.374;2024-03-02T12:35:54;15.30;99.90
2130;DHT22;1071;52.544;13.374;2024-03-02T12:38:25;15.30;99.90
2130;DHT22;1071;52.544;13.374;2024-03-02T12:40:55;15.30;99.90
2130;DHT22;1071;52.544;13.374;2024-03-02T12:43:22;15.30;99.90
2130;DHT22;1071;52.544;13.374;2024-03-02T12:45:51;15.40;99.90
2130;DHT22;1071;52.544;13.374;2024-03-02T12:48:21;15.40;99.90
2130;DHT22;1071;52.544;13.374;2024-03-02T12:50:48;15.40;99.90
2130;DHT22;1071;52.544;13.374;2024-03-02T12:53:16;15.50;99.90
2130;DHT22;1071;52.544;13.374;2024-03-02T12:55:44;15.50;99.90
2130;DHT22;1071;52.544;13.374;2024-03-02T12:58:17;15.50;99.90
2130;DHT22;1071;52.544;13.374;2024-03-02T13:00:44;15.60;99.90
2130;DHT22;1071;52.544;13.374;2024-03-02T13:03:23;15.70;99.90
2130;DHT22;1071;52.544;13.374;2024-03-02T13:05:51;15.70;99.90
2130;DHT22;1071;52.544;13.374;2024-03-02T13:08:20;15.80;99.90
2130;DHT22;1071;52.544;13.374;2024-03-02T13:10:48;15.80;99.90
2130;DHT22;1071;52.544;13.374;2024-03-02T13:13:16;15.80;99.90
2130;DHT22;1071;52.544;13.374;2024-03-02T13:15:43;15.80;99.90
2130;DHT22;1071;52.544;13.374;2024-03-02T13:18:13;15.80;99.90
2130;DHT22;1071;52.544;13.374;2024-03-02T13:20:40;15.80;99.90
2130;DHT22;1071;52.544;13.374;2024-03-02T13:23:11;15.90;99.90
2130;DHT22;1071;52.544;13.374;2024-03-02T13:25:40;15.90;99.90
2130;DHT22;1071;52.544;13.374;2024-03-02T13:28:09;15.90;99.90
2130;DHT22;1071;52.544;13.374;2024-03-02T13:30:37;16.00;99.90
2130;DHT22;1071;52.544;13.374;2024-03-02T13:33:06;16.00;99.90
2130;DHT22;1071;52.544;13.374;2024-03-02T13:35:35;16.10;99.90
2130;DHT22;1071;52.544;13.374;2024-03-02T13:38:03;16.10;99.90
2130;DHT22;1071;52.544;13.374;2024-03-02T13:40:30;16.10;99.90
2130;DHT22;1071;52.544;13.374;2024-03-02T13:43:01;16.10;99.90
2130;DHT22;1071;52.544;13.374;2024-03-02T13:45:29;16.10;99.90
2130;DHT22;1071;52.544;13.374;2024-03-02T13:47:56;16.10;99.90
2130;DHT22;1071;52.544;13.374;2024-03-02T13:50:23;16.10;99.90
2130;DHT22;1071;52.544;13.374;2024-03-02T13:52:50;16.10;99.90
2130;DHT22;1071;52.544;13.374;2024-03-02T13:55:17;16.10;99.90
2130;DHT22;1071;52.544;13.374;2024-03-02T13:57:46;16.10;99.90
2130;DHT22;1071;52.544;13.374;2024-03-02T14:00:16;16.10;99.90
2130;DHT22;1071;52.544;13.374;2024-03-02T14:02:45;16.10;99.90
2130;DHT22;1071;52.544;13.374;2024-03-02T14:05:16;16.20;99.90
2130;DHT22;1071;52.544;13.374;2024-03-02T14:07:43;16.10;99.90
2130;DHT22;1071;52.544;13.374;2024-03-02T14:10:10;16.10;99.90
2130;DHT22;1071;52.544;13.374;2024-03-02T14:12:38;16.20;99.90
2130;DHT22;1071;52.544;13.374;2024-03-02T14:15:06;16.20;99.90
2130;DHT22;1071;52.544;13.374;2024-03-02T14:17:34;16.10;99.90
2130;DHT22;1071;52.544;13.374;2024-03-02T14:20:05;16.20;99.90
2130;DHT22;1071;52.544;13.374;2024-03-02T14:22:33;16.10;99.90
2130;DHT22;1071;52.544;13.374;2024-03-02T14:25:05;16.20;99.90
2130;DHT22;1071;52.544;13.374;2024-03-02T14:27:32;16.20;99.90
2130;DHT22;1071;52.544;13.374;2024-03-02T14:30:01;16.20;99.90
2130;DHT22;1071;52.544;13.374;2024-03-02T14:32:28;16.20;99.90
2130;DHT22;1071;52.544;13.374;2024-03-02T14:34:56;16.20;99.90
2130;DHT22;1071;52.544;13.374;2024-03-02T14:37:24;16.20;99.90
2130;DHT22;1071;52.544;13.374;2024-03-02T14:39:56;16.20;99.90
2130;DHT22;1071;52.544;13.374;2024-03-02T14:42:23;16.20;99.90
2130;DHT22;1071;52.544;13.374;2024-03-02T14:44:53;16.20;99.90
2130;DHT22;1071;52.544;13.374;2024-03-02T14:47:24;16.10;99.90
2130;DHT22;1071;52.544;13.374;2024-03-02T14:49:52;16.10;99.90
2130;DHT22;1071;52.544;13.374;2024-03-02T14:52:20;16.00;99.90
2130;DHT22;1071;52.544;13.374;2024-03-02T14:54:49;16.00;99.90
2130;DHT22;1071;52.544;13.374;2024-03-02T14:57:16;16.00;99.90
2130;DHT22;1071;52.544;13.374;2024-03-02T14:59:44;15.90;99.90
2130;DHT22;1071;52.544;13.374;2024-03-02T15:02:11;15.90;99.90
2130;DHT22;1071;52.544;13.374;2024-03-02T15:04:38;15.80;99.90
2130;DHT22;1071;52.544;13.374;2024-03-02T15:07:06;15.90;99.90
2130;DHT22;1071;52.544;13.374;2024-03-02T15:09:33;15.80;99.90
2130;DHT22;1071;52.544;13.374;2024-03-02T15:12:03;15.90;99.90
2130;DHT22;1071;52.544;13.374;2024-03-02T15:14:31;15.80;99.90
2130;DHT22;1071;52.544;13.374;2024-03-02T15:16:59;15.90;99.90
2130;DHT22;1071;52.544;13.374;2024-03-02T15:19:27;15.80;99.90
2130;DHT22;1071;52.544;13.374;2024-03-02T15:21:54;15.80;99.90
2130;DHT22;1071;52.544;13.374;2024-03-02T15:24:22;15.80;99.90
2130;DHT22;1071;52.544;13.374;2024-03-02T15:26:55;15.70;99.90
2130;DHT22;1071;52.544;13.374;2024-03-02T15:29:24;15.70;99.90
2130;DHT22;1071;52.544;13.374;2024-03-02T15:31:56;15.70;99.90
2130;DHT22;1071;52.544;13.374;2024-03-02T15:34:29;15.60;99.90
2130;DHT22;1071;52.544;13.374;2024-03-02T15:36:58;15.60;99.90
2130;DHT22;1071;52.544;13.374;2024-03-02T15:39:30;15.60;99.90
2130;DHT22;1071;52.544;13.374;2024-03-02T15:41:59;15.60;99.90
2130;DHT22;1071;52.544;13.374;2024-03-02T15:45:06;15.60;99.90
2130;DHT22;1071;52.544;13.374;2024-03-02T15:47:37;15.60;99.90
2130;DHT22;1071;52.544;13.374;2024-03-02T15:50:06;15.50;99.90
2130;DHT22;1071;52.544;13.374;2024-03-02T15:52:34;15.60;99.90
2130;DHT22;1071;52.544;13.374;2024-03-02T15:55:02;15.60;99.90